Time;durP1;ratioP1;P1;durP2;ratioP2;P2;SDS_P1;SDS_P2;PMS_P1;PMS_P2;Temp;Humidity;BMP_temperature;BMP_pressure;BME280_temperature;BME280_humidity;BME280_pressure;Samples;Min_cycle;Max_cycle;Signal;HPM_P1;HPM_P2
2023/11/01 00:01:30;;;;;;;3.90;1.38;;;;;;;;;;5111877;28;20028;-69
2023/11/01 00:03:56;;;;;;;5.15;1.23;;;;;;;;;;5112433;28;20026;-69
2023/11/01 00:06:22;;;;;;;3.42;1.17;;;;;;;;;;5113307;28;20023;-69
2023/11/01 00:08:48;;;;;;;1.70;0.68;;;;;;;;;;5111507;28;20019;-69
2023/11/01 00:11:14;;;;;;;2.47;0.90;;;;;;;;;;5103579;28;20464;-69
2023/11/01 00:13:40;;;;;;;2.67;0.90;;;;;;;;;;5109345;28;20027;-69
2023/11/01 00:16:06;;;;;;;1.20;0.88;;;;;;;;;;5112566;28;20085;-69
2023/11/01 00:18:32;;;;;;;4.63;1.10;;;;;;;;;;5111331;28;20015;-68
2023/11/01 00:20:58;;;;;;;3.88;0.85;;;;;;;;;;5101524;28;20477;-69
2023/11/01 00:23:24;;;;;;;2.38;1.10;;;;;;;;;;5111779;28;20020;-69
2023/11/01 00:25:50;;;;;;;3.13;0.82;;;;;;;;;;5104955;28;20012;-69
2023/11/01 00:28:16;;;;;;;1.30;0.85;;;;;;;;;;5111565;28;20012;-69
2023/11/01 00:30:43;;;;;;;1.65;0.70;;;;;;;;;;5109673;28;20118;-66
2023/11/01 00:33:08;;;;;;;3.33;1.10;;;;;;;;;;5111355;28;20031;-66
2023/11/01 00:35:34;;;;;;;6.30;1.48;;;;;;;;;;5111553;28;20027;-66
2023/11/01 00:38:00;;;;;;;6.25;1.15;;;;;;;;;;5111583;28;20110;-68
2023/11/01 00:40:26;;;;;;;4.68;0.93;;;;;;;;;;5111928;28;20483;-69
2023/11/01 00:42:53;;;;;;;1.90;0.75;;;;;;;;;;5111302;28;20024;-69
2023/11/01 00:45:19;;;;;;;2.67;1.20;;;;;;;;;;5112061;28;20034;-69
2023/11/01 00:47:45;;;;;;;2.00;0.70;;;;;;;;;;5109448;28;20016;-68
2023/11/01 00:50:11;;;;;;;3.47;1.13;;;;;;;;;;5111810;28;20027;-68
2023/11/01 00:52:37;;;;;;;2.65;0.75;;;;;;;;;;5108018;28;20019;-68
2023/11/01 00:55:04;;;;;;;2.90;0.90;;;;;;;;;;5111211;28;20452;-68
2023/11/01 00:57:32;;;;;;;1.75;1.08;;;;;;;;;;5109937;28;20019;-68
2023/11/01 00:59:58;;;;;;;3.58;1.02;;;;;;;;;;5108222;28;20027;-67
2023/11/01 01:02:24;;;;;;;4.32;1.33;;;;;;;;;;5111010;28;20039;-68
2023/11/01 01:04:50;;;;;;;2.80;0.88;;;;;;;;;;5109617;28;20037;-68
2023/11/01 01:07:16;;;;;;;4.03;1.10;;;;;;;;;;5108860;28;20099;-68
2023/11/01 01:09:42;;;;;;;2.88;1.20;;;;;;;;;;5109349;28;20115;-68
2023/11/01 01:12:09;;;;;;;1.55;0.80;;;;;;;;;;5111376;28;20024;-68
2023/11/01 01:14:35;;;;;;;3.88;1.00;;;;;;;;;;5109278;28;20095;-68
2023/11/01 01:17:01;;;;;;;2.63;1.10;;;;;;;;;;5100962;27;20207;-68
2023/11/01 01:19:27;;;;;;;3.08;0.93;;;;;;;;;;5117487;27;20061;-68
2023/11/01 01:21:53;;;;;;;3.20;0.90;;;;;;;;;;5119413;27;20028;-68
2023/11/01 01:24:19;;;;;;;3.38;1.10;;;;;;;;;;5119787;27;20050;-68
2023/11/01 01:26:45;;;;;;;4.20;1.70;;;;;;;;;;5119643;27;20030;-68
2023/11/01 01:29:11;;;;;;;1.85;0.70;;;;;;;;;;5121232;27;20016;-68
2023/11/01 01:31:38;;;;;;;2.42;0.98;;;;;;;;;;5115662;27;20024;-68
2023/11/01 01:34:04;;;;;;;3.22;1.00;;;;;;;;;;5122211;27;20026;-68
2023/11/01 01:36:30;;;;;;;3.65;1.10;;;;;;;;;;5120029;27;20011;-68
2023/11/01 01:38:56;;;;;;;2.50;1.00;;;;;;;;;;5119723;27;20068;-68
2023/11/01 01:41:22;;;;;;;16.05;3.50;;;;;;;;;;5121643;27;20030;-67
2023/11/01 01:43:48;;;;;;;51.35;11.43;;;;;;;;;;5119481;27;20159;-67
2023/11/01 01:46:14;;;;;;;36.80;8.00;;;;;;;;;;5118977;28;20094;-67
2023/11/01 01:48:41;;;;;;;16.92;3.08;;;;;;;;;;5120950;28;20031;-67
2023/11/01 01:51:08;;;;;;;9.38;2.28;;;;;;;;;;5123170;28;20019;-68
2023/11/01 01:53:37;;;;;;;7.47;1.80;;;;;;;;;;5118462;28;20016;-68
2023/11/01 01:56:04;;;;;;;13.15;2.45;;;;;;;;;;5117889;28;20011;-68
2023/11/01 01:58:31;;;;;;;6.05;1.80;;;;;;;;;;5118013;28;20016;-68
2023/11/01 02:00:58;;;;;;;5.88;1.20;;;;;;;;;;5117348;28;20041;-68
2023/11/01 02:03:24;;;;;;;4.50;1.35;;;;;;;;;;5121779;28;20072;-68
2023/11/01 02:05:50;;;;;;;2.60;0.93;;;;;;;;;;5118941;28;20026;-68
2023/11/01 02:08:17;;;;;;;3.08;0.95;;;;;;;;;;5117307;28;20068;-68
2023/11/01 02:10:43;;;;;;;3.03;1.60;;;;;;;;;;5119946;28;20098;-68
2023/11/01 02:13:10;;;;;;;6.07;1.10;;;;;;;;;;5119317;28;20681;-68
2023/11/01 02:15:36;;;;;;;5.20;1.30;;;;;;;;;;5117387;28;20123;-68
2023/11/01 02:18:02;;;;;;;2.05;0.90;;;;;;;;;;5109482;28;20141;-68
2023/11/01 02:20:28;;;;;;;4.10;0.90;;;;;;;;;;5110980;28;20024;-68
2023/11/01 02:22:55;;;;;;;5.13;1.05;;;;;;;;;;5120579;28;20016;-68
2023/11/01 02:25:21;;;;;;;2.47;0.80;;;;;;;;;;5110633;28;20077;-68
2023/11/01 02:27:47;;;;;;;6.43;1.10;;;;;;;;;;5101263;28;20031;-68
2023/11/01 02:30:16;;;;;;;3.00;1.05;;;;;;;;;;5105305;28;20015;-67
2023/11/01 02:32:47;;;;;;;4.82;1.50;;;;;;;;;;5100367;28;20019;-68
2023/11/01 02:35:14;;;;;;;6.22;1.00;;;;;;;;;;5114128;28;20043;-68
2023/11/01 02:37:40;;;;;;;3.10;0.95;;;;;;;;;;5108609;28;20456;-67
2023/11/01 02:40:08;;;;;;;3.65;1.25;;;;;;;;;;5113382;28;20024;-67
2023/11/01 02:42:34;;;;;;;3.85;0.73;;;;;;;;;;5103965;28;20007;-67
2023/11/01 02:45:00;;;;;;;4.47;1.02;;;;;;;;;;5121360;28;20563;-67
2023/11/01 02:47:26;;;;;;;3.72;0.90;;;;;;;;;;5113853;28;20098;-67
2023/11/01 02:49:52;;;;;;;4.28;1.05;;;;;;;;;;5109910;28;20036;-67
2023/11/01 02:52:18;;;;;;;3.05;1.00;;;;;;;;;;5110390;28;20028;-67
2023/11/01 02:54:44;;;;;;;5.18;0.98;;;;;;;;;;5114330;27;20012;-67
2023/11/01 02:57:10;;;;;;;3.58;1.10;;;;;;;;;;5125886;27;20402;-68
2023/11/01 02:59:36;;;;;;;4.15;0.80;;;;;;;;;;5109362;27;20109;-67
2023/11/01 03:02:02;;;;;;;2.60;0.73;;;;;;;;;;5106443;28;20012;-67
2023/11/01 03:04:28;;;;;;;4.65;0.90;;;;;;;;;;5109502;27;20097;-67
2023/11/01 03:06:54;;;;;;;5.15;0.80;;;;;;;;;;5120246;27;20015;-67
2023/11/01 03:09:20;;;;;;;3.35;0.85;;;;;;;;;;5112574;28;20015;-66
2023/11/01 03:11:46;;;;;;;2.88;0.88;;;;;;;;;;5111584;28;20111;-67
2023/11/01 03:14:12;;;;;;;2.92;0.75;;;;;;;;;;5117504;27;20107;-67
2023/11/01 03:16:38;;;;;;;3.72;1.20;;;;;;;;;;5115706;27;20459;-67
2023/11/01 03:19:04;;;;;;;3.15;0.90;;;;;;;;;;5132694;27;20015;-68
2023/11/01 03:21:30;;;;;;;5.25;0.75;;;;;;;;;;5132851;27;20038;-69
2023/11/01 03:23:56;;;;;;;1.95;0.73;;;;;;;;;;5132297;27;20350;-68
2023/11/01 03:26:22;;;;;;;10.50;1.35;;;;;;;;;;5133226;27;20007;-67
2023/11/01 03:28:48;;;;;;;3.95;1.45;;;;;;;;;;5131808;27;20019;-67
2023/11/01 03:31:18;;;;;;;3.22;0.93;;;;;;;;;;5131161;27;20023;-67
2023/11/01 03:33:44;;;;;;;3.65;0.70;;;;;;;;;;5131655;27;20072;-67
2023/11/01 03:36:10;;;;;;;1.92;0.73;;;;;;;;;;5132740;27;20007;-67
2023/11/01 03:38:37;;;;;;;5.55;1.00;;;;;;;;;;5132140;27;20409;-67
2023/11/01 03:41:04;;;;;;;1.83;0.70;;;;;;;;;;5132465;27;20375;-67
2023/11/01 03:43:30;;;;;;;2.30;0.90;;;;;;;;;;5131279;27;20371;-67
2023/11/01 03:45:56;;;;;;;3.45;0.80;;;;;;;;;;5132789;27;20496;-67
2023/11/01 03:48:22;;;;;;;3.78;1.38;;;;;;;;;;5132731;27;20027;-67
2023/11/01 03:50:48;;;;;;;4.40;0.93;;;;;;;;;;5133080;27;20211;-67
2023/11/01 03:53:14;;;;;;;2.03;0.82;;;;;;;;;;5123558;27;20452;-67
2023/11/01 03:55:40;;;;;;;8.85;1.73;;;;;;;;;;5133344;27;20094;-67
2023/11/01 03:58:06;;;;;;;2.42;0.70;;;;;;;;;;5132966;27;20019;-67
2023/11/01 04:00:32;;;;;;;2.55;0.75;;;;;;;;;;5132801;27;20031;-68
2023/11/01 04:02:58;;;;;;;4.25;0.80;;;;;;;;;;5132256;27;20030;-67
2023/11/01 04:05:24;;;;;;;3.50;0.60;;;;;;;;;;5130917;27;20415;-67
2023/11/01 04:07:50;;;;;;;2.90;0.80;;;;;;;;;;5132274;27;20030;-67
2023/11/01 04:10:16;;;;;;;3.15;0.80;;;;;;;;;;5133373;27;20080;-67
2023/11/01 04:12:42;;;;;;;2.33;0.88;;;;;;;;;;5132503;27;20452;-67
2023/11/01 04:15:12;;;;;;;3.63;0.98;;;;;;;;;;5132471;27;20055;-66
2023/11/01 04:17:38;;;;;;;4.10;0.60;;;;;;;;;;5131910;27;20019;-67
2023/11/01 04:20:05;;;;;;;1.95;0.75;;;;;;;;;;5133438;27;20066;-67
2023/11/01 04:22:31;;;;;;;3.75;0.82;;;;;;;;;;5116682;27;20351;-67
2023/11/01 04:24:57;;;;;;;1.90;0.70;;;;;;;;;;5130594;27;20022;-67
2023/11/01 04:27:23;;;;;;;3.63;1.05;;;;;;;;;;5132940;27;20019;-68
2023/11/01 04:29:54;;;;;;;5.55;0.80;;;;;;;;;;5131732;27;20039;-67
2023/11/01 04:32:20;;;;;;;;;;;;;;;;;;5131448;27;20108;-66
2023/11/01 04:34:49;;;;;;;3.08;0.80;;;;;;;;;;5133846;27;20458;-67
2023/11/01 04:37:15;;;;;;;4.73;0.87;;;;;;;;;;5125245;27;20398;-67
2023/11/01 04:39:46;;;;;;;5.40;1.00;;;;;;;;;;5132476;27;20054;-67
2023/11/01 04:42:12;;;;;;;2.22;0.60;;;;;;;;;;5134337;27;20011;-67
2023/11/01 04:44:39;;;;;;;1.80;0.73;;;;;;;;;;5131760;27;20548;-67
2023/11/01 04:47:05;;;;;;;2.55;0.65;;;;;;;;;;5133127;27;20019;-67
2023/11/01 04:49:31;;;;;;;1.90;0.52;;;;;;;;;;5131526;27;20024;-67
2023/11/01 04:51:57;;;;;;;2.53;0.95;;;;;;;;;;5132501;27;20405;-67
2023/11/01 04:54:23;;;;;;;5.30;0.80;;;;;;;;;;5126523;27;20030;-67
2023/11/01 04:56:49;;;;;;;3.85;0.90;;;;;;;;;;5131794;27;20543;-67
2023/11/01 04:59:16;;;;;;;4.20;0.73;;;;;;;;;;5131654;27;20011;-67
2023/11/01 05:01:42;;;;;;;6.03;1.42;;;;;;;;;;5131454;27;20091;-67
2023/11/01 05:04:08;;;;;;;6.03;0.68;;;;;;;;;;5131735;27;20023;-67
2023/11/01 05:06:34;;;;;;;2.20;0.73;;;;;;;;;;5131402;27;20372;-67
2023/11/01 05:09:00;;;;;;;2.67;0.70;;;;;;;;;;5132106;27;20015;-67
2023/11/01 05:11:26;;;;;;;3.17;0.52;;;;;;;;;;5132106;27;20489;-66
2023/11/01 05:13:52;;;;;;;3.50;0.60;;;;;;;;;;5125058;27;20019;-67
2023/11/01 05:16:18;;;;;;;3.38;1.08;;;;;;;;;;5131535;27;20113;-70
2023/11/01 05:18:43;;;;;;;5.50;0.90;;;;;;;;;;5102356;28;20479;-68
2023/11/01 05:21:09;;;;;;;4.90;0.85;;;;;;;;;;5129512;27;20051;-68
2023/11/01 05:23:35;;;;;;;3.60;1.00;;;;;;;;;;5131061;27;20027;-68
2023/11/01 05:26:01;;;;;;;4.68;0.60;;;;;;;;;;5133067;27;20115;-70
2023/11/01 05:28:27;;;;;;;2.30;0.60;;;;;;;;;;5131356;27;20019;-68
2023/11/01 05:30:53;;;;;;;3.83;0.93;;;;;;;;;;5130671;27;20369;-68
2023/11/01 05:33:19;;;;;;;2.22;0.63;;;;;;;;;;5113236;28;20068;-68
2023/11/01 05:35:46;;;;;;;5.60;1.10;;;;;;;;;;5131187;27;20090;-68
2023/11/01 05:38:12;;;;;;;2.38;0.60;;;;;;;;;;5130992;27;20030;-68
2023/11/01 05:40:38;;;;;;;2.38;0.55;;;;;;;;;;5130854;27;20026;-68
2023/11/01 05:43:07;;;;;;;1.55;0.60;;;;;;;;;;5131240;27;20015;-68
2023/11/01 05:45:33;;;;;;;4.18;0.70;;;;;;;;;;5131094;27;20015;-69
2023/11/01 05:48:06;;;;;;;4.05;0.75;;;;;;;;;;5131114;28;20037;-68
2023/11/01 05:50:33;;;;;;;3.38;0.70;;;;;;;;;;5130821;28;20023;-68
2023/11/01 05:53:02;;;;;;;3.33;1.00;;;;;;;;;;5131093;28;20369;-68
2023/11/01 05:55:28;;;;;;;2.95;0.80;;;;;;;;;;5135021;27;20019;-71
2023/11/01 05:57:54;;;;;;;1.40;0.80;;;;;;;;;;5111908;28;20395;-68
2023/11/01 06:00:22;;;;;;;4.20;0.68;;;;;;;;;;5131386;28;20027;-68
2023/11/01 06:02:48;;;;;;;4.68;0.90;;;;;;;;;;5130229;28;20079;-68
2023/11/01 06:05:15;;;;;;;2.17;0.70;;;;;;;;;;5130809;28;20102;-69
2023/11/01 06:07:42;;;;;;;4.18;0.80;;;;;;;;;;5129606;28;20440;-68
2023/11/01 06:10:08;;;;;;;5.53;0.70;;;;;;;;;;5129967;28;20080;-68
2023/11/01 06:12:35;;;;;;;2.05;0.70;;;;;;;;;;5129483;28;20030;-68
2023/11/01 06:15:01;;;;;;;3.75;1.02;;;;;;;;;;5129851;28;20011;-68
2023/11/01 06:17:27;;;;;;;5.15;0.88;;;;;;;;;;5118217;27;20069;-68
2023/11/01 06:19:53;;;;;;;3.15;1.00;;;;;;;;;;5120040;28;20011;-68
2023/11/01 06:22:19;;;;;;;5.35;0.98;;;;;;;;;;5120355;28;20627;-68
2023/11/01 06:24:45;;;;;;;4.55;0.95;;;;;;;;;;5120154;27;20043;-68
2023/11/01 06:27:12;;;;;;;2.67;0.70;;;;;;;;;;5121314;27;20024;-68
2023/11/01 06:29:38;;;;;;;4.22;0.88;;;;;;;;;;5124757;27;20099;-68
2023/11/01 06:32:04;;;;;;;5.82;0.75;;;;;;;;;;5120644;27;20102;-68
2023/11/01 06:34:30;;;;;;;6.22;0.93;;;;;;;;;;5122555;27;20094;-69
2023/11/01 06:36:56;;;;;;;5.15;0.90;;;;;;;;;;5121577;27;20468;-68
2023/11/01 06:39:22;;;;;;;3.72;1.02;;;;;;;;;;5121835;27;20077;-68
2023/11/01 06:41:48;;;;;;;3.03;1.35;;;;;;;;;;5122766;27;20020;-68
2023/11/01 06:44:14;;;;;;;4.65;0.90;;;;;;;;;;5120903;27;20016;-69
2023/11/01 06:46:40;;;;;;;5.75;1.05;;;;;;;;;;5121537;27;20027;-69
2023/11/01 06:49:06;;;;;;;5.22;1.33;;;;;;;;;;5121202;27;20019;-70
2023/11/01 06:51:32;;;;;;;3.72;0.90;;;;;;;;;;5122236;27;20392;-69
2023/11/01 06:53:58;;;;;;;4.40;1.38;;;;;;;;;;5125134;27;20107;-69
2023/11/01 06:56:24;;;;;;;5.78;1.60;;;;;;;;;;5121047;27;20077;-69
2023/11/01 06:58:51;;;;;;;5.05;1.77;;;;;;;;;;5121940;27;20019;-71
2023/11/01 07:01:18;;;;;;;5.22;1.40;;;;;;;;;;5120896;27;20128;-70
2023/11/01 07:03:44;;;;;;;4.38;1.23;;;;;;;;;;5118541;27;20045;-68
2023/11/01 07:06:10;;;;;;;5.72;1.70;;;;;;;;;;5123213;27;20379;-68
2023/11/01 07:08:37;;;;;;;3.58;1.55;;;;;;;;;;5122819;27;20098;-68
2023/11/01 07:11:04;;;;;;;4.28;1.50;;;;;;;;;;5121643;27;20335;-69
2023/11/01 07:13:30;;;;;;;5.60;2.00;;;;;;;;;;5120777;27;20105;-68
2023/11/01 07:15:56;;;;;;;4.15;1.80;;;;;;;;;;5121725;27;20036;-68
2023/11/01 07:18:22;;;;;;;12.63;2.13;;;;;;;;;;5116134;27;20337;-71
2023/11/01 07:20:48;;;;;;;4.78;2.50;;;;;;;;;;5112658;28;20080;-67
2023/11/01 07:23:14;;;;;;;7.40;2.58;;;;;;;;;;5106283;28;20015;-68
2023/11/01 07:25:40;;;;;;;6.15;2.15;;;;;;;;;;5112898;28;20121;-67
2023/11/01 07:28:06;;;;;;;6.60;1.90;;;;;;;;;;5112976;28;20015;-67
2023/11/01 07:30:32;;;;;;;5.07;2.00;;;;;;;;;;5114319;27;20034;-68
2023/11/01 07:32:58;;;;;;;4.30;2.00;;;;;;;;;;5112892;27;20024;-66
2023/11/01 07:35:24;;;;;;;4.97;1.70;;;;;;;;;;5112543;28;20093;-67
2023/11/01 07:37:49;;;;;;;2.20;1.42;;;;;;;;;;5100504;28;20027;-67
2023/11/01 07:40:15;;;;;;;4.97;2.05;;;;;;;;;;5113130;28;20479;-67
2023/11/01 07:42:41;;;;;;;4.00;1.92;;;;;;;;;;5109670;28;20028;-68
2023/11/01 07:45:09;;;;;;;3.42;1.70;;;;;;;;;;5109690;27;20015;-67
2023/11/01 07:47:36;;;;;;;5.32;2.08;;;;;;;;;;5117298;27;20515;-68
2023/11/01 07:50:04;;;;;;;4.53;1.75;;;;;;;;;;5114017;27;20046;-69
2023/11/01 07:52:30;;;;;;;4.40;1.80;;;;;;;;;;5105486;28;20032;-69
2023/11/01 07:54:56;;;;;;;4.22;1.52;;;;;;;;;;5102813;28;20123;-67
2023/11/01 07:57:22;;;;;;;2.58;1.38;;;;;;;;;;5100890;28;20050;-68
2023/11/01 07:59:48;;;;;;;7.78;1.33;;;;;;;;;;5109020;28;20020;-73
2023/11/01 08:02:14;;;;;;;4.22;1.48;;;;;;;;;;5116437;27;20495;-77
2023/11/01 08:04:40;;;;;;;3.28;1.48;;;;;;;;;;5093752;28;20027;-73
2023/11/01 08:07:06;;;;;;;2.70;1.40;;;;;;;;;;5120814;27;20440;-70
2023/11/01 08:09:32;;;;;;;2.53;1.30;;;;;;;;;;5112048;28;20065;-70
2023/11/01 08:11:58;;;;;;;3.33;1.10;;;;;;;;;;5112509;28;20023;-73
2023/11/01 08:14:24;;;;;;;3.28;1.40;;;;;;;;;;5112594;28;20102;-72
2023/11/01 08:16:50;;;;;;;8.18;1.42;;;;;;;;;;5126213;27;20420;-68
2023/11/01 08:19:16;;;;;;;4.85;1.88;;;;;;;;;;5132624;27;20011;-75
2023/11/01 08:21:42;;;;;;;3.50;1.20;;;;;;;;;;5132425;27;20026;-72
2023/11/01 08:24:08;;;;;;;3.10;1.30;;;;;;;;;;5132808;27;20064;-76
2023/11/01 08:26:34;;;;;;;5.07;1.35;;;;;;;;;;5132854;27;20434;-71
2023/11/01 08:29:00;;;;;;;2.72;1.23;;;;;;;;;;5132404;27;20087;-69
2023/11/01 08:31:26;;;;;;;3.70;1.38;;;;;;;;;;5131762;27;20474;-77
2023/11/01 08:33:52;;;;;;;6.43;1.27;;;;;;;;;;5123749;27;20163;-71
2023/11/01 08:36:18;;;;;;;3.38;1.20;;;;;;;;;;5132389;27;20026;-69
2023/11/01 08:38:44;;;;;;;3.25;1.02;;;;;;;;;;5131880;27;20050;-69
2023/11/01 08:41:13;;;;;;;2.75;1.10;;;;;;;;;;5132589;27;20478;-69
2023/11/01 08:43:38;;;;;;;3.22;1.00;;;;;;;;;;5132096;27;20051;-69
2023/11/01 08:46:05;;;;;;;3.30;1.00;;;;;;;;;;5131892;27;20096;-69
2023/11/01 08:48:31;;;;;;;3.22;0.75;;;;;;;;;;5131137;27;20019;-70
2023/11/01 08:50:57;;;;;;;2.00;0.65;;;;;;;;;;5132360;27;20025;-69
2023/11/01 08:53:23;;;;;;;1.48;1.00;;;;;;;;;;5132330;27;20043;-69
2023/11/01 08:55:49;;;;;;;4.75;0.93;;;;;;;;;;5118913;27;20089;-69
2023/11/01 08:58:15;;;;;;;1.67;0.73;;;;;;;;;;5131645;27;20107;-68
2023/11/01 09:00:41;;;;;;;3.00;0.68;;;;;;;;;;5134668;27;20101;-73
2023/11/01 09:03:07;;;;;;;3.58;0.80;;;;;;;;;;5124163;27;20457;-71
2023/11/01 09:05:33;;;;;;;2.75;0.52;;;;;;;;;;5118187;27;20051;-70
2023/11/01 09:07:59;;;;;;;3.25;0.90;;;;;;;;;;5131586;27;20050;-71
2023/11/01 09:10:25;;;;;;;2.47;0.63;;;;;;;;;;5130336;27;20034;-72
2023/11/01 09:12:52;;;;;;;1.35;0.73;;;;;;;;;;5118940;27;20456;-71
2023/11/01 09:15:17;;;;;;;3.30;1.50;;;;;;;;;;5132098;27;20112;-70
2023/11/01 09:17:43;;;;;;;2.78;0.63;;;;;;;;;;5130957;27;20086;-69
2023/11/01 09:20:10;;;;;;;2.20;0.70;;;;;;;;;;5127621;27;20119;-73
2023/11/01 09:22:36;;;;;;;1.60;0.60;;;;;;;;;;5126636;27;20072;-68
2023/11/01 09:25:02;;;;;;;2.60;0.70;;;;;;;;;;5131944;27;20015;-70
2023/11/01 09:27:28;;;;;;;1.20;0.60;;;;;;;;;;5129346;27;20396;-68
2023/11/01 09:29:54;;;;;;;2.03;0.60;;;;;;;;;;5125029;27;20034;-69
2023/11/01 09:32:20;;;;;;;2.50;0.80;;;;;;;;;;5130630;27;20066;-68
2023/11/01 09:34:46;;;;;;;2.17;0.60;;;;;;;;;;5130793;27;20019;-71
2023/11/01 09:37:12;;;;;;;3.88;1.05;;;;;;;;;;5131395;27;20360;-70
2023/11/01 09:39:38;;;;;;;2.95;1.30;;;;;;;;;;5130600;27;20023;-71
2023/11/01 09:42:06;;;;;;;3.35;0.80;;;;;;;;;;5131419;27;20054;-71
2023/11/01 09:44:33;;;;;;;2.63;0.75;;;;;;;;;;5131046;27;20020;-72
2023/11/01 09:46:59;;;;;;;2.13;0.63;;;;;;;;;;5132369;27;20072;-69
2023/11/01 09:49:25;;;;;;;2.28;0.90;;;;;;;;;;5125004;27;20054;-70
2023/11/01 09:51:52;;;;;;;5.68;0.77;;;;;;;;;;5131523;27;20015;-74
2023/11/01 09:54:18;;;;;;;2.28;0.70;;;;;;;;;;5130906;28;20019;-69
2023/11/01 09:56:45;;;;;;;1.98;0.60;;;;;;;;;;5129819;28;20053;-69
2023/11/01 09:59:12;;;;;;;4.03;0.65;;;;;;;;;;5131536;27;20023;-70
2023/11/01 10:01:38;;;;;;;3.25;0.70;;;;;;;;;;5135219;27;20103;-69
2023/11/01 10:04:05;;;;;;;2.38;0.65;;;;;;;;;;5135631;27;20023;-70
2023/11/01 10:06:31;;;;;;;3.05;1.23;;;;;;;;;;5134643;27;20039;-66
2023/11/01 10:08:57;;;;;;;1.95;0.77;;;;;;;;;;5135294;27;20051;-66
2023/11/01 10:11:23;;;;;;;1.00;0.70;;;;;;;;;;5135310;27;20116;-68
2023/11/01 10:13:50;;;;;;;2.22;0.70;;;;;;;;;;5132064;27;20031;-69
2023/11/01 10:16:16;;;;;;;2.72;0.60;;;;;;;;;;5132776;27;20149;-67
2023/11/01 10:18:42;;;;;;;2.38;0.85;;;;;;;;;;5135255;27;20026;-66
2023/11/01 10:21:08;;;;;;;2.28;0.52;;;;;;;;;;5132978;27;20027;-70
2023/11/01 10:23:35;;;;;;;0.80;0.55;;;;;;;;;;5134450;27;20015;-68
2023/11/01 10:26:04;;;;;;;1.58;0.60;;;;;;;;;;5135988;27;20045;-70
2023/11/01 10:28:33;;;;;;;1.55;0.70;;;;;;;;;;5134419;27;20034;-70
2023/11/01 10:30:59;;;;;;;2.58;0.52;;;;;;;;;;5134710;27;20030;-66
2023/11/01 10:33:26;;;;;;;2.78;0.90;;;;;;;;;;5126363;27;20027;-68
2023/11/01 10:35:59;;;;;;;3.38;1.10;;;;;;;;;;5132825;27;20051;-66
2023/11/01 10:38:25;;;;;;;4.10;0.93;;;;;;;;;;5135161;27;20015;-65
2023/11/01 10:40:51;;;;;;;2.40;0.82;;;;;;;;;;5132548;27;20059;-71
2023/11/01 10:43:18;;;;;;;1.63;0.65;;;;;;;;;;5134994;27;20468;-69
2023/11/01 10:45:45;;;;;;;1.15;0.60;;;;;;;;;;5134502;27;20409;-69
2023/11/01 10:48:12;;;;;;;2.45;0.60;;;;;;;;;;5134460;27;20026;-69
2023/11/01 10:50:39;;;;;;;2.72;0.80;;;;;;;;;;5133727;27;20019;-69
2023/11/01 10:53:06;;;;;;;2.45;0.50;;;;;;;;;;5134753;27;20047;-69
2023/11/01 10:55:33;;;;;;;1.35;0.70;;;;;;;;;;5124946;27;20360;-71
2023/11/01 10:57:59;;;;;;;0.90;0.50;;;;;;;;;;5134748;27;20083;-77
2023/11/01 11:00:38;;;;;;;3.05;0.70;;;;;;;;;;5132620;27;20019;-68
2023/11/01 11:03:23;;;;;;;1.98;0.80;;;;;;;;;;5132123;27;20054;-69
2023/11/01 11:05:49;;;;;;;2.42;0.73;;;;;;;;;;5134519;27;20083;-68
2023/11/01 11:08:15;;;;;;;2.80;0.68;;;;;;;;;;5127893;27;20099;-67
2023/11/01 11:10:43;;;;;;;1.95;0.60;;;;;;;;;;5126666;27;20466;-67
2023/11/01 11:13:18;;;;;;;2.47;0.90;;;;;;;;;;5134304;27;20487;-67
2023/11/01 11:15:50;;;;;;;2.88;0.60;;;;;;;;;;5126869;27;20046;-68
2023/11/01 11:18:21;;;;;;;2.65;0.70;;;;;;;;;;5134836;27;20015;-73
2023/11/01 11:20:51;;;;;;;1.58;0.70;;;;;;;;;;5134389;27;20234;-68
2023/11/01 11:23:21;;;;;;;1.02;0.38;;;;;;;;;;5120487;27;20110;-68
2023/11/01 11:25:49;;;;;;;4.38;0.95;;;;;;;;;;5133945;27;20015;-68
2023/11/01 11:28:18;;;;;;;1.65;0.47;;;;;;;;;;5134316;27;20046;-69
2023/11/01 11:30:44;;;;;;;2.33;0.73;;;;;;;;;;5133850;27;20363;-69
2023/11/01 11:33:11;;;;;;;5.72;0.82;;;;;;;;;;5134173;27;20364;-72
2023/11/01 11:35:37;;;;;;;2.75;0.70;;;;;;;;;;5129362;27;20030;-69
2023/11/01 11:38:26;;;;;;;1.38;0.50;;;;;;;;;;5131877;27;20027;-68
2023/11/01 11:41:11;;;;;;;1.63;0.82;;;;;;;;;;5113227;27;20031;-68
2023/11/01 11:43:55;;;;;;;1.73;1.13;;;;;;;;;;5125246;27;20404;-70
2023/11/01 11:46:35;;;;;;;2.85;0.70;;;;;;;;;;5134577;27;20329;-74
2023/11/01 11:49:05;;;;;;;2.67;0.70;;;;;;;;;;5132026;27;20471;-67
2023/11/01 11:51:34;;;;;;;1.75;0.43;;;;;;;;;;5132852;27;20027;-68
2023/11/01 11:54:13;;;;;;;3.35;0.60;;;;;;;;;;5130591;27;20072;-67
2023/11/01 11:56:39;;;;;;;3.13;0.60;;;;;;;;;;5133264;27;20437;-68
2023/11/01 11:59:05;;;;;;;2.42;0.70;;;;;;;;;;5133448;27;20019;-67
2023/11/01 12:01:31;;;;;;;2.33;0.82;;;;;;;;;;5133440;27;20482;-68
2023/11/01 12:03:58;;;;;;;1.08;0.63;;;;;;;;;;5133014;27;20058;-67
2023/11/01 12:06:25;;;;;;;2.45;0.80;;;;;;;;;;5134373;27;20041;-74
2023/11/01 12:08:51;;;;;;;1.85;0.77;;;;;;;;;;5135421;27;20034;-71
2023/11/01 12:11:17;;;;;;;2.45;0.85;;;;;;;;;;5134023;27;20019;-67
2023/11/01 12:13:44;;;;;;;3.72;0.85;;;;;;;;;;5132690;27;20087;-68
2023/11/01 12:16:26;;;;;;;1.40;0.90;;;;;;;;;;5133247;27;20043;-71
2023/11/01 12:19:07;;;;;;;1.88;0.70;;;;;;;;;;5132799;27;20038;-68
2023/11/01 12:21:33;;;;;;;2.17;1.10;;;;;;;;;;5132982;27;20079;-71
2023/11/01 12:23:59;;;;;;;4.05;0.80;;;;;;;;;;5132254;27;20027;-70
2023/11/01 12:26:25;;;;;;;1.25;1.08;;;;;;;;;;5132229;27;20348;-70
2023/11/01 12:28:51;;;;;;;2.00;0.70;;;;;;;;;;5132394;27;20058;-69
2023/11/01 12:31:18;;;;;;;1.77;0.70;;;;;;;;;;5133073;27;20102;-69
2023/11/01 12:33:44;;;;;;;3.47;0.73;;;;;;;;;;5132018;27;20027;-70
2023/11/01 12:36:10;;;;;;;2.38;0.93;;;;;;;;;;5133098;27;20019;-71
2023/11/01 12:38:36;;;;;;;1.80;0.73;;;;;;;;;;5129566;27;20019;-69
2023/11/01 12:41:09;;;;;;;1.35;0.90;;;;;;;;;;5119315;27;20026;-68
2023/11/01 12:43:37;;;;;;;3.92;0.98;;;;;;;;;;5123911;27;20401;-70
2023/11/01 12:46:03;;;;;;;0.85;0.70;;;;;;;;;;5127051;27;20050;-69
2023/11/01 12:48:29;;;;;;;1.63;0.80;;;;;;;;;;5127703;27;20023;-71
2023/11/01 12:50:55;;;;;;;3.10;0.73;;;;;;;;;;5131232;27;20038;-70
2023/11/01 12:53:21;;;;;;;2.35;0.70;;;;;;;;;;5130783;27;20098;-69
2023/11/01 12:55:47;;;;;;;1.60;0.80;;;;;;;;;;5117045;27;20658;-69
2023/11/01 12:58:13;;;;;;;1.63;0.60;;;;;;;;;;5124920;27;20019;-67
2023/11/01 13:00:40;;;;;;;1.38;0.68;;;;;;;;;;5126550;27;20023;-68
2023/11/01 13:03:06;;;;;;;1.13;0.70;;;;;;;;;;5131082;27;20019;-81
2023/11/01 13:05:32;;;;;;;1.23;0.82;;;;;;;;;;5120953;27;20019;-75
2023/11/01 13:08:00;;;;;;;1.45;0.80;;;;;;;;;;5129884;27;20455;-73
2023/11/01 13:10:26;;;;;;;1.58;0.55;;;;;;;;;;5121094;27;20027;-72
2023/11/01 13:12:52;;;;;;;1.52;0.70;;;;;;;;;;5128911;27;20097;-71
2023/11/01 13:15:18;;;;;;;2.05;1.10;;;;;;;;;;5102556;27;20020;-71
2023/11/01 13:17:44;;;;;;;2.63;0.98;;;;;;;;;;5109695;28;20160;-72
2023/11/01 13:20:10;;;;;;;1.02;0.68;;;;;;;;;;5105921;28;20536;-70
2023/11/01 13:22:36;;;;;;;1.98;1.00;;;;;;;;;;5109927;28;20050;-71
2023/11/01 13:25:02;;;;;;;3.08;1.10;;;;;;;;;;5101664;28;20055;-71
2023/11/01 13:27:28;;;;;;;2.38;1.42;;;;;;;;;;5108796;28;20027;-71
2023/11/01 13:29:54;;;;;;;2.38;0.93;;;;;;;;;;5105078;28;20031;-71
2023/11/01 13:32:20;;;;;;;3.15;1.20;;;;;;;;;;5105113;28;20354;-69
2023/11/01 13:34:46;;;;;;;2.97;1.55;;;;;;;;;;5101935;28;20018;-78
2023/11/01 13:37:14;;;;;;;3.53;1.00;;;;;;;;;;5110530;28;20023;-71
2023/11/01 13:39:40;;;;;;;2.10;1.20;;;;;;;;;;5112810;27;20035;-68
2023/11/01 13:42:06;;;;;;;1.95;0.85;;;;;;;;;;5109537;28;20024;-70
2023/11/01 13:44:32;;;;;;;2.22;1.00;;;;;;;;;;5107284;28;20024;-70
2023/11/01 13:46:58;;;;;;;1.13;0.60;;;;;;;;;;5109485;28;20022;-70
2023/11/01 13:49:24;;;;;;;1.90;1.05;;;;;;;;;;5103984;28;20028;-69
2023/11/01 13:51:50;;;;;;;1.85;1.10;;;;;;;;;;5117496;28;20068;-70
2023/11/01 13:54:16;;;;;;;1.63;0.98;;;;;;;;;;5107604;28;20008;-80
2023/11/01 13:56:43;;;;;;;1.73;0.98;;;;;;;;;;5115864;28;20077;-73
2023/11/01 13:59:09;;;;;;;2.40;0.65;;;;;;;;;;5106979;28;20119;-71
2023/11/01 14:01:34;;;;;;;3.60;1.00;;;;;;;;;;5110198;28;20440;-70
2023/11/01 14:04:01;;;;;;;1.15;1.02;;;;;;;;;;5109562;28;20095;-75
2023/11/01 14:06:27;;;;;;;2.92;0.90;;;;;;;;;;5108771;28;20020;-68
2023/11/01 14:08:53;;;;;;;1.42;0.75;;;;;;;;;;5109865;28;20015;-68
2023/11/01 14:11:22;;;;;;;3.60;0.90;;;;;;;;;;5111392;28;20027;-68
2023/11/01 14:13:48;;;;;;;1.80;0.80;;;;;;;;;;5110135;28;20019;-71
2023/11/01 14:16:14;;;;;;;3.75;1.00;;;;;;;;;;5102554;28;20047;-67
2023/11/01 14:18:40;;;;;;;4.63;1.00;;;;;;;;;;5108400;28;20047;-67
2023/11/01 14:21:10;;;;;;;2.05;0.98;;;;;;;;;;5103673;28;20059;-66
2023/11/01 14:23:36;;;;;;;3.70;1.70;;;;;;;;;;5109246;28;20028;-66
2023/11/01 14:26:02;;;;;;;4.00;1.95;;;;;;;;;;5103473;28;20367;-67
2023/11/01 14:28:28;;;;;;;3.42;2.15;;;;;;;;;;5108709;28;20030;-66
2023/11/01 14:30:58;;;;;;;3.63;1.90;;;;;;;;;;5106054;28;20039;-66
2023/11/01 14:33:24;;;;;;;3.77;1.70;;;;;;;;;;5102880;28;20400;-67
2023/11/01 14:35:50;;;;;;;3.05;1.30;;;;;;;;;;5103927;28;20020;-66
2023/11/01 14:38:16;;;;;;;2.45;1.20;;;;;;;;;;5109259;28;20034;-68
2023/11/01 14:40:43;;;;;;;6.40;2.78;;;;;;;;;;5103679;28;20027;-67